ePrivacy and GPDR Cookie Consent by Cookie Consent
EmailTwitter


Observations de surface / France / LFPO (07149)

Régions: Québec | Canada | États-Unis | Europe | France | UK | Ailleurs
Station
Affichage
Infos & localisation pour LFPO (07149) | Aide pour décoder les METARs

Observations prises le 2023-02-07 à 18H00 UTC à PARIS/ORLY, FR (LFPO)

Température: 4.0 Celsius

Point de rosée: -2.0 Celsius

Humidité relative: 65%

Facteur vent 1.

Vents: Nord-est à 11 km/h ou 6 noeuds.

Pression au niveau moyen de la mer: 103.70 kilopascals.

Observation METAR:

LFPO 071800Z 04006KT CAVOK 04/M02 Q1037 NOSIG=